Pagina principale
METAR-TAF:

METAR-TAF

Aeroporti :

Aeroporto di Varsavia-Chopin

Varsavia, Polonia

latitudine: 52-10N, longitudine: 020-58E, altezza: 106 m

Osservazione

Il bollettino è stato emesso 28 minuti fa, alle 16:00 UTC
Vento 16 kt da sud-est
Temperature 16°C
Umidità 48%
Pressione 1022 hPa
Visibilità 10 km o più
nessuna nube inferiore a 1500 m e nessun cumulonembo

METAR: EPWA 221600Z 13016KT CAVOK 16/05 Q1022 NOSIG

Ora: 18:28 (16:28 UTC)

Previsione

Il bollettino è stato emesso 1 ora e 58 minuti fa, alle 14:30 UTC
Previsione valida dal 22 alle 15 UTC al 23 alle 15 UTC
Vento 14 kt da est/sud-est
Visibilità 10 km o più
nessuna nube inferiore a 1500 m e nessun cumulonembo
Temporaneamente
dal 23 alle 07 UTC al 23 alle 15 UTC
Vento 18 kt da sud-est con raffiche fino a 30 kt

TAF: EPWA 221430Z 2215/2315 11014KT CAVOK TEMPO 2307/2315 13018G30KT

Osservazioni e previsioni meteorologiche di più di 4000 aeroporti (messaggi METAR e TAF).

Le stazioni disponibili sono rappresentate dai dischi gialli e rossi sulla carta.

Puntare il mouse per vedere il nome della stazione.

Clicca sopra per visualizzare le osservazioni e previsioni meteorologiche.

Per cambiare la mappa : fare clic sui pulsanti verdi con una croce nera per ingrandire, il pulsante verde con un trattino per diminuire, o sulla freccia verde per le mappe adiacenti.


METAR-TAF: